Аэропорт: Усинск. Усинск

ICAO: UUYS

METAR:
2013/07/19 07:30
UUYS 190730Z VRB02MPS 9999 -SHRA SCT033CB OVC/// 24/14 Q1006 NOSIG RMK QFE748/0997 14290050
METAR:
2013/05/06 12:24
TAF TAF UUYS 061100Z 0612/0624 31006MPS 9999 BKN007CB BKN070 530001 
      TEMPO 0612/0621 34006G11MPS 1000 SHRASN BKN003